createdAt,value
2022-11-18T00:01:45.453Z,9.70
2022-11-18T00:06:37.150Z,9.70
2022-11-18T00:11:48.262Z,9.70
2022-11-18T00:16:39.937Z,9.80
2022-11-18T00:21:31.675Z,9.80
2022-11-18T00:26:23.489Z,9.80
2022-11-18T00:31:15.320Z,9.70
2022-11-18T00:36:11.210Z,9.60
2022-11-18T00:41:09.299Z,9.60
2022-11-18T00:46:01.734Z,9.70
2022-11-18T00:50:57.996Z,9.70
2022-11-18T00:55:50.605Z,9.70
2022-11-18T01:00:45.018Z,9.70
2022-11-18T01:05:38.002Z,9.70
2022-11-18T01:10:30.153Z,9.50
2022-11-18T01:15:21.862Z,9.50
2022-11-18T01:20:15.226Z,9.50
2022-11-18T01:25:07.580Z,9.60
2022-11-18T01:29:59.251Z,9.60
2022-11-18T01:34:50.921Z,9.70
2022-11-18T01:45:32.194Z,9.80
2022-11-18T01:50:24.548Z,9.70
2022-11-18T01:55:26.687Z,9.70
2022-11-18T02:00:18.612Z,9.70
2022-11-18T02:05:11.706Z,9.70
2022-11-18T02:10:07.173Z,9.70
2022-11-18T02:15:00.546Z,9.70
2022-11-18T02:20:12.129Z,9.60
2022-11-18T02:25:46.937Z,9.50
2022-11-18T02:31:06.421Z,9.50
2022-11-18T02:36:13.055Z,9.40
2022-11-18T02:41:09.197Z,9.40
2022-11-18T02:46:08.998Z,9.30
2022-11-18T02:51:05.725Z,9.20
2022-11-18T02:56:00.106Z,9.20
2022-11-18T03:00:57.982Z,9.20
2022-11-18T03:06:23.606Z,9.30
2022-11-18T03:11:29.410Z,9.40
2022-11-18T03:16:34.938Z,9.30
2022-11-18T03:21:37.309Z,9.30
2022-11-18T03:26:38.817Z,9.30
2022-11-18T03:32:03.697Z,9.30
2022-11-18T03:37:05.245Z,9.30
2022-11-18T03:42:41.423Z,9.30
2022-11-18T03:47:40.781Z,9.30
2022-11-18T03:52:37.535Z,9.20
2022-11-18T03:58:04.066Z,9.20
2022-11-18T04:02:55.986Z,9.10
2022-11-18T04:08:02.603Z,9.00
2022-11-18T04:13:06.883Z,8.90
2022-11-18T04:17:59.606Z,8.90
2022-11-18T04:22:51.363Z,8.90
2022-11-18T04:27:43.145Z,8.90
2022-11-18T04:32:34.929Z,8.90
2022-11-18T04:37:26.780Z,8.80
2022-11-18T04:42:18.630Z,8.80
2022-11-18T04:47:10.683Z,8.80
2022-11-18T04:52:03.098Z,8.90
2022-11-18T04:56:56.070Z,9.00
2022-11-18T05:22:52.404Z,8.80
2022-11-18T15:07:00.204Z,9.60
